Time,TemperatureF,DewpointF,PressureIn,WindDirection,WindDirectionDegrees,WindSpeedMPH,WindSpeedGustMPH,Humidity,HourlyPrecipIn,Conditions,Clouds,dailyrainin,SoftwareType,DateUTC
2013-10-10 00:00:00,63.8,35.6,29.49,SE,142,8.0,8.0,35,0.00,,,0.00,Wunderground v.1.15,2013-10-10 06:00:00,
2013-10-10 00:05:00,63.7,35.5,29.48,SE,146,6.0,8.0,35,0.00,,,0.00,Wunderground v.1.15,2013-10-10 06:05:00,
2013-10-10 00:15:00,64.0,35.8,29.50,SSE,168,8.0,8.0,35,0.00,,,0.00,Wunderground v.1.15,2013-10-10 06:15:00,
2013-10-10 00:20:00,64.4,35.4,29.51,SW,225,11.0,17.0,34,0.00,,,0.00,Wunderground v.1.15,2013-10-10 06:20:00,
2013-10-10 00:30:00,64.1,38.0,29.48,South,173,15.0,15.0,38,0.00,,,0.00,Wunderground v.1.15,2013-10-10 06:30:00,
2013-10-10 00:35:00,63.4,38.0,29.50,SSE,167,12.0,15.0,39,0.00,,,0.00,Wunderground v.1.15,2013-10-10 06:35:00,
2013-10-10 00:40:00,62.8,38.1,29.51,SSE,150,12.0,17.0,40,0.00,,,0.00,Wunderground v.1.15,2013-10-10 06:40:00,
2013-10-10 00:45:00,62.0,38.6,29.52,SE,128,11.0,17.0,42,0.00,,,0.00,Wunderground v.1.15,2013-10-10 06:45:00,
2013-10-10 00:50:00,61.5,38.8,29.51,SSE,161,10.0,10.0,43,0.00,,,0.00,Wunderground v.1.15,2013-10-10 06:50:00,
2013-10-10 00:55:00,61.2,38.5,29.51,SE,138,7.0,10.0,43,0.00,,,0.00,Wunderground v.1.15,2013-10-10 06:55:00,
2013-10-10 01:00:00,61.0,38.3,29.50,ESE,115,5.0,5.0,43,0.00,,,0.00,Wunderground v.1.15,2013-10-10 07:00:00,
2013-10-10 01:05:00,61.1,38.4,29.47,ESE,102,4.0,5.0,43,0.00,,,0.00,Wunderground v.1.15,2013-10-10 07:05:00,
2013-10-10 01:15:00,61.0,38.3,29.47,SE,126,3.0,6.0,43,0.00,,,0.00,Wunderground v.1.15,2013-10-10 07:15:00,
2013-10-10 01:20:00,61.1,38.4,29.46,East,94,4.0,4.0,43,0.00,,,0.00,Wunderground v.1.15,2013-10-10 07:20:00,
2013-10-10 01:25:00,60.9,38.8,29.47,SSE,157,3.0,9.0,44,0.00,,,0.00,Wunderground v.1.15,2013-10-10 07:25:00,
2013-10-10 01:35:00,60.9,38.2,29.47,ESE,107,4.0,4.0,43,0.00,,,0.00,Wunderground v.1.15,2013-10-10 07:35:00,
2013-10-10 01:40:00,60.9,38.2,29.47,ESE,113,5.0,5.0,43,0.00,,,0.00,Wunderground v.1.15,2013-10-10 07:40:00,
2013-10-10 01:45:00,59.5,39.8,29.47,East,88,7.0,7.0,48,0.00,,,0.00,Wunderground v.1.15,2013-10-10 07:45:00,
2013-10-10 01:50:00,58.7,39.6,29.48,East,99,6.0,7.0,49,0.00,,,0.00,Wunderground v.1.15,2013-10-10 07:50:00,
2013-10-10 01:55:00,58.7,39.0,29.49,ESE,104,6.0,7.0,48,0.00,,,0.00,Wunderground v.1.15,2013-10-10 07:55:00,
2013-10-10 02:05:00,59.0,39.3,29.50,ESE,102,4.0,5.0,48,0.00,,,0.00,Wunderground v.1.15,2013-10-10 08:05:00,
2013-10-10 02:15:00,59.0,40.4,29.50,SE,137,3.0,20.0,50,0.00,,,0.00,Wunderground v.1.15,2013-10-10 08:15:00,
2013-10-10 02:20:00,59.5,39.8,29.49,ESE,105,4.0,4.0,48,0.00,,,0.00,Wunderground v.1.15,2013-10-10 08:20:00,
2013-10-10 02:25:00,59.8,39.5,29.49,ESE,118,5.0,5.0,47,0.00,,,0.00,Wunderground v.1.15,2013-10-10 08:25:00,
2013-10-10 02:35:00,59.9,39.6,29.50,SE,132,6.0,10.0,47,0.00,,,0.00,Wunderground v.1.15,2013-10-10 08:35:00,
2013-10-10 02:40:00,60.0,39.7,29.50,ESE,111,5.0,5.0,47,0.00,,,0.00,Wunderground v.1.15,2013-10-10 08:40:00,
2013-10-10 02:45:00,59.7,40.0,29.50,East,97,3.0,5.0,48,0.00,,,0.00,Wunderground v.1.15,2013-10-10 08:45:00,
2013-10-10 02:50:00,59.1,39.9,29.50,ESE,120,4.0,6.0,49,0.00,,,0.00,Wunderground v.1.15,2013-10-10 08:50:00,
2013-10-10 02:55:00,59.0,40.9,29.51,East,83,4.0,6.0,51,0.00,,,0.00,Wunderground v.1.15,2013-10-10 08:55:00,
2013-10-10 03:00:00,58.4,41.3,29.50,East,86,3.0,3.0,53,0.00,,,0.00,Wunderground v.1.15,2013-10-10 09:00:00,
2013-10-10 03:05:00,57.9,41.3,29.51,ENE,75,2.0,4.0,54,0.00,,,0.00,Wunderground v.1.15,2013-10-10 09:05:00,
2013-10-10 03:15:00,57.6,41.5,29.51,ESE,123,1.0,1.0,55,0.00,,,0.00,Wunderground v.1.15,2013-10-10 09:15:00,
2013-10-10 03:20:00,57.7,41.2,29.51,East,95,1.0,1.0,54,0.00,,,0.00,Wunderground v.1.15,2013-10-10 09:20:00,
2013-10-10 03:25:00,57.8,41.3,29.50,East,84,0.0,1.0,54,0.00,,,0.00,Wunderground v.1.15,2013-10-10 09:25:00,
2013-10-10 03:30:00,57.7,40.7,29.50,ENE,59,0.0,0.0,53,0.00,,,0.00,Wunderground v.1.15,2013-10-10 09:30:00,
2013-10-10 03:40:00,57.9,40.9,29.49,NE,52,0.0,0.0,53,0.00,,,0.00,Wunderground v.1.15,2013-10-10 09:40:00,
2013-10-10 03:45:00,58.0,40.5,29.49,East,96,0.0,5.0,52,0.00,,,0.00,Wunderground v.1.15,2013-10-10 09:45:00,
2013-10-10 03:50:00,58.1,40.6,29.49,ESE,103,3.0,9.0,52,0.00,,,0.00,Wunderground v.1.15,2013-10-10 09:50:00,
2013-10-10 03:55:00,58.4,40.8,29.49,ESE,107,6.0,9.0,52,0.00,,,0.00,Wunderground v.1.15,2013-10-10 09:55:00,
2013-10-10 04:05:00,58.2,41.1,29.48,East,98,6.0,7.0,53,0.00,,,0.00,Wunderground v.1.15,2013-10-10 10:05:00,
2013-10-10 04:10:00,57.9,40.9,29.49,East,96,5.0,5.0,53,0.00,,,0.00,Wunderground v.1.15,2013-10-10 10:10:00,
2013-10-10 04:15:00,57.8,40.8,29.49,South,191,3.0,5.0,53,0.00,,,0.00,Wunderground v.1.15,2013-10-10 10:15:00,
2013-10-10 04:20:00,57.5,41.4,29.50,SSW,192,2.0,2.0,55,0.00,,,0.00,Wunderground v.1.15,2013-10-10 10:20:00,
2013-10-10 04:25:00,57.4,40.9,29.50,South,183,5.0,8.0,54,0.00,,,0.00,Wunderground v.1.15,2013-10-10 10:25:00,
2013-10-10 04:30:00,57.8,40.8,29.50,SSW,196,5.0,5.0,53,0.00,,,0.00,Wunderground v.1.15,2013-10-10 10:30:00,
2013-10-10 04:35:00,57.8,41.3,29.51,SSW,205,4.0,9.0,54,0.00,,,0.00,Wunderground v.1.15,2013-10-10 10:35:00,
2013-10-10 04:45:00,57.5,42.8,29.52,WNW,286,6.0,6.0,58,0.00,,,0.00,Wunderground v.1.15,2013-10-10 10:45:00,
2013-10-10 04:50:00,56.4,44.0,29.52,WSW,257,6.0,16.0,63,0.00,,,0.00,Wunderground v.1.15,2013-10-10 10:50:00,
2013-10-10 04:55:00,53.8,44.2,29.55,West,273,9.0,16.0,70,0.00,,,0.01,Wunderground v.1.15,2013-10-10 10:55:00,
2013-10-10 05:00:00,52.3,44.6,29.53,WSW,258,10.0,10.0,75,0.22,,,0.03,Wunderground v.1.15,2013-10-10 11:00:00,
2013-10-10 05:05:00,51.3,44.7,29.56,WSW,257,6.0,10.0,78,0.11,,,0.03,Wunderground v.1.15,2013-10-10 11:05:00,
2013-10-10 05:10:00,50.6,44.3,29.58,West,279,6.0,6.0,79,0.06,,,0.03,Wunderground v.1.15,2013-10-10 11:10:00,
2013-10-10 05:15:00,50.3,44.4,29.58,West,263,6.0,6.0,80,0.04,,,0.03,Wunderground v.1.15,2013-10-10 11:15:00,
2013-10-10 05:20:00,50.2,44.9,29.59,WNW,286,5.0,5.0,82,0.00,,,0.03,Wunderground v.1.15,2013-10-10 11:20:00,
2013-10-10 05:25:00,50.2,44.9,29.59,West,275,3.0,5.0,82,0.00,,,0.03,Wunderground v.1.15,2013-10-10 11:25:00,
2013-10-10 05:30:00,50.3,45.0,29.59,WNW,292,2.0,2.0,82,0.00,,,0.03,Wunderground v.1.15,2013-10-10 11:30:00,
2013-10-10 05:35:00,50.3,45.0,29.59,West,279,2.0,6.0,82,0.00,,,0.03,Wunderground v.1.15,2013-10-10 11:35:00,
2013-10-10 05:45:00,50.0,44.7,29.58,WNW,286,1.0,1.0,82,0.00,,,0.04,Wunderground v.1.15,2013-10-10 11:45:00,
2013-10-10 05:50:00,49.9,44.6,29.58,West,278,0.0,0.0,82,0.00,,,0.04,Wunderground v.1.15,2013-10-10 11:50:00,
2013-10-10 05:55:00,49.7,44.7,29.58,West,279,0.0,0.0,83,0.00,,,0.04,Wunderground v.1.15,2013-10-10 11:55:00,
2013-10-10 06:00:00,49.5,44.6,29.58,West,280,0.0,0.0,83,0.00,,,0.04,Wunderground v.1.15,2013-10-10 12:00:00,
2013-10-10 06:05:00,49.4,44.8,29.62,West,272,0.0,0.0,84,0.00,,,0.04,Wunderground v.1.15,2013-10-10 12:05:00,
2013-10-10 06:15:00,49.2,44.6,29.62,West,272,0.0,0.0,84,0.00,,,0.05,Wunderground v.1.15,2013-10-10 12:15:00,
2013-10-10 06:25:00,49.2,44.9,29.61,NNW,348,0.0,0.0,85,0.06,,,0.06,Wunderground v.1.15,2013-10-10 12:25:00,
2013-10-10 06:30:00,49.2,44.9,29.61,NNW,342,0.0,0.0,85,0.05,,,0.06,Wunderground v.1.15,2013-10-10 12:30:00,
2013-10-10 06:40:00,49.0,44.7,29.62,NNW,336,0.0,0.0,85,0.00,,,0.06,Wunderground v.1.15,2013-10-10 12:40:00,
2013-10-10 06:50:00,49.2,44.9,29.62,NE,44,0.0,0.0,85,0.00,,,0.07,Wunderground v.1.15,2013-10-10 12:50:00,
2013-10-10 06:55:00,49.2,45.2,29.62,NE,44,0.0,0.0,86,0.15,,,0.08,Wunderground v.1.15,2013-10-10 12:55:00,
2013-10-10 07:00:00,49.2,45.2,29.62,NE,44,0.0,0.0,86,0.22,,,0.10,Wunderground v.1.15,2013-10-10 13:00:00,
2013-10-10 07:05:00,49.2,45.2,29.65,NE,44,0.0,0.0,86,0.16,,,0.11,Wunderground v.1.15,2013-10-10 13:05:00,
2013-10-10 07:15:00,49.1,45.1,29.65,NE,44,0.0,0.0,86,0.12,,,0.14,Wunderground v.1.15,2013-10-10 13:15:00,
2013-10-10 07:20:00,49.0,45.0,29.64,NE,44,0.0,1.0,86,0.09,,,0.14,Wunderground v.1.15,2013-10-10 13:20:00,
2013-10-10 07:25:00,49.0,45.3,29.63,ENE,60,1.0,2.0,87,0.06,,,0.15,Wunderground v.1.15,2013-10-10 13:25:00,
2013-10-10 07:30:00,48.9,45.2,29.63,ENE,65,2.0,2.0,87,0.06,,,0.15,Wunderground v.1.15,2013-10-10 13:30:00,
2013-10-10 07:35:00,48.8,45.1,29.62,ENE,71,3.0,3.0,87,0.05,,,0.15,Wunderground v.1.15,2013-10-10 13:35:00,
2013-10-10 07:40:00,48.7,45.0,29.61,ENE,64,3.0,3.0,87,0.04,,,0.15,Wunderground v.1.15,2013-10-10 13:40:00,
2013-10-10 07:45:00,48.7,45.0,29.61,ENE,59,2.0,3.0,87,0.00,,,0.15,Wunderground v.1.15,2013-10-10 13:45:00,
2013-10-10 07:50:00,48.7,44.7,29.61,East,84,1.0,2.0,86,0.00,,,0.15,Wunderground v.1.15,2013-10-10 13:50:00,
2013-10-10 07:55:00,48.7,44.7,29.61,East,79,0.0,2.0,86,0.00,,,0.15,Wunderground v.1.15,2013-10-10 13:55:00,
2013-10-10 08:00:00,48.7,44.7,29.60,East,87,1.0,1.0,86,0.00,,,0.15,Wunderground v.1.15,2013-10-10 14:00:00,
2013-10-10 08:05:00,48.7,44.7,29.60,ESE,103,2.0,2.0,86,0.00,,,0.15,Wunderground v.1.15,2013-10-10 14:05:00,
2013-10-10 08:15:00,48.8,44.8,29.61,East,99,3.0,3.0,86,0.00,,,0.15,Wunderground v.1.15,2013-10-10 14:15:00,
2013-10-10 08:25:00,48.8,44.8,29.61,SE,125,1.0,3.0,86,0.00,,,0.15,Wunderground v.1.15,2013-10-10 14:25:00,
2013-10-10 08:30:00,48.8,44.8,29.61,East,91,0.0,0.0,86,0.00,,,0.15,Wunderground v.1.15,2013-10-10 14:30:00,
2013-10-10 08:40:00,48.8,44.8,29.60,East,83,1.0,1.0,86,0.00,,,0.16,Wunderground v.1.15,2013-10-10 14:40:00,
2013-10-10 08:45:00,48.8,44.8,29.61,East,88,1.0,1.0,86,0.00,,,0.16,Wunderground v.1.15,2013-10-10 14:45:00,
2013-10-10 08:55:00,48.8,44.8,29.60,East,94,1.0,2.0,86,0.04,,,0.17,Wunderground v.1.15,2013-10-10 14:55:00,
2013-10-10 09:05:00,48.8,44.8,29.61,ESE,110,2.0,2.0,86,0.04,,,0.17,Wunderground v.1.15,2013-10-10 15:05:00,
2013-10-10 09:15:00,48.9,44.9,29.61,SE,126,1.0,2.0,86,0.00,,,0.17,Wunderground v.1.15,2013-10-10 15:15:00,
2013-10-10 09:25:00,49.2,45.2,29.61,East,97,1.0,3.0,86,0.00,,,0.18,Wunderground v.1.15,2013-10-10 15:25:00,
2013-10-10 09:30:00,49.2,45.2,29.61,SE,129,2.0,2.0,86,0.00,,,0.18,Wunderground v.1.15,2013-10-10 15:30:00,
2013-10-10 09:35:00,49.2,45.2,29.62,SSE,155,2.0,2.0,86,0.00,,,0.18,Wunderground v.1.15,2013-10-10 15:35:00,
2013-10-10 09:40:00,49.2,45.2,29.63,SSE,159,2.0,2.0,86,0.00,,,0.19,Wunderground v.1.15,2013-10-10 15:40:00,
2013-10-10 09:45:00,49.2,45.2,29.63,SSE,163,2.0,5.0,86,0.09,,,0.20,Wunderground v.1.15,2013-10-10 15:45:00,
2013-10-10 09:50:00,49.1,45.1,29.63,SW,224,2.0,6.0,86,0.07,,,0.20,Wunderground v.1.15,2013-10-10 15:50:00,
2013-10-10 10:00:00,48.9,44.6,29.63,WSW,253,3.0,3.0,85,0.06,,,0.21,Wunderground v.1.15,2013-10-10 16:00:00,
2013-10-10 10:05:00,48.7,44.1,29.64,West,260,2.0,3.0,84,0.07,,,0.22,Wunderground v.1.15,2013-10-10 16:05:00,
2013-10-10 10:15:00,48.3,43.4,29.66,SW,221,1.0,2.0,83,0.06,,,0.23,Wunderground v.1.15,2013-10-10 16:15:00,
2013-10-10 10:20:00,48.0,43.1,29.66,SW,221,2.0,2.0,83,0.06,,,0.23,Wunderground v.1.15,2013-10-10 16:20:00,
2013-10-10 10:25:00,47.9,43.0,29.67,West,261,2.0,2.0,83,0.04,,,0.24,Wunderground v.1.15,2013-10-10 16:25:00,
2013-10-10 10:30:00,47.9,43.3,29.67,WSW,240,1.0,3.0,84,0.04,,,0.24,Wunderground v.1.15,2013-10-10 16:30:00,
2013-10-10 10:35:00,47.6,42.7,29.68,WSW,258,2.0,7.0,83,0.04,,,0.24,Wunderground v.1.15,2013-10-10 16:35:00,
2013-10-10 10:45:00,46.9,42.0,29.68,West,268,1.0,3.0,83,0.09,,,0.25,Wunderground v.1.15,2013-10-10 16:45:00,
2013-10-10 10:50:00,46.7,41.8,29.67,West,268,0.0,0.0,83,0.09,,,0.26,Wunderground v.1.15,2013-10-10 16:50:00,
2013-10-10 11:00:00,46.5,41.3,29.67,West,269,0.0,0.0,82,0.04,,,0.26,Wunderground v.1.15,2013-10-10 17:00:00,
2013-10-10 11:05:00,46.5,41.3,29.60,West,269,0.0,0.0,82,0.00,,,0.26,Wunderground v.1.15,2013-10-10 17:05:00,
2013-10-10 11:15:00,46.9,42.0,29.60,NNW,327,0.0,0.0,83,0.00,,,0.26,Wunderground v.1.15,2013-10-10 17:15:00,
2013-10-10 11:20:00,46.9,42.0,29.61,NNW,329,0.0,0.0,83,0.00,,,0.26,Wunderground v.1.15,2013-10-10 17:20:00,
2013-10-10 11:25:00,46.9,42.0,29.61,NNW,330,0.0,0.0,83,0.00,,,0.26,Wunderground v.1.15,2013-10-10 17:25:00,
2013-10-10 11:35:00,46.9,42.0,29.62,NNW,330,0.0,0.0,83,0.00,,,0.27,Wunderground v.1.15,2013-10-10 17:35:00,
2013-10-10 11:40:00,46.8,41.6,29.62,NW,326,0.0,0.0,82,0.00,,,0.27,Wunderground v.1.15,2013-10-10 17:40:00,
2013-10-10 11:45:00,46.8,41.6,29.62,NW,326,0.0,0.0,82,0.06,,,0.28,Wunderground v.1.15,2013-10-10 17:45:00,
2013-10-10 11:50:00,46.8,41.9,29.62,NW,326,0.0,0.0,83,0.06,,,0.28,Wunderground v.1.15,2013-10-10 17:50:00,
2013-10-10 11:55:00,46.9,42.0,29.62,NW,326,0.0,0.0,83,0.07,,,0.29,Wunderground v.1.15,2013-10-10 17:55:00,
2013-10-10 12:05:00,46.9,42.0,29.64,NW,326,0.0,0.0,83,0.04,,,0.29,Wunderground v.1.15,2013-10-10 18:05:00,
2013-10-10 12:15:00,47.3,42.4,29.64,NW,326,0.0,0.0,83,0.00,,,0.29,Wunderground v.1.15,2013-10-10 18:15:00,
2013-10-10 12:20:00,47.3,42.4,29.64,NNW,330,0.0,0.0,83,0.00,,,0.29,Wunderground v.1.15,2013-10-10 18:20:00,
2013-10-10 12:30:00,47.4,42.5,29.64,NNE,32,0.0,0.0,83,0.00,,,0.29,Wunderground v.1.15,2013-10-10 18:30:00,
2013-10-10 12:35:00,47.4,42.2,29.64,NE,53,0.0,1.0,82,0.00,,,0.29,Wunderground v.1.15,2013-10-10 18:35:00,
2013-10-10 12:40:00,47.5,42.3,29.63,ENE,61,1.0,2.0,82,0.00,,,0.29,Wunderground v.1.15,2013-10-10 18:40:00,
2013-10-10 12:45:00,47.4,42.2,29.63,NE,50,2.0,3.0,82,0.00,,,0.29,Wunderground v.1.15,2013-10-10 18:45:00,
2013-10-10 12:55:00,47.3,42.4,29.62,NE,44,3.0,7.0,83,0.00,,,0.29,Wunderground v.1.15,2013-10-10 18:55:00,
2013-10-10 13:00:00,47.2,42.0,29.62,ENE,72,4.0,4.0,82,0.00,,,0.29,Wunderground v.1.15,2013-10-10 19:00:00,
2013-10-10 13:05:00,47.2,42.3,29.62,NE,55,4.0,4.0,83,0.00,,,0.29,Wunderground v.1.15,2013-10-10 19:05:00,
2013-10-10 13:15:00,47.2,42.3,29.62,NE,45,2.0,4.0,83,0.00,,,0.29,Wunderground v.1.15,2013-10-10 19:15:00,
2013-10-10 13:20:00,47.3,42.4,29.62,ENE,67,1.0,2.0,83,0.00,,,0.29,Wunderground v.1.15,2013-10-10 19:20:00,
2013-10-10 13:25:00,47.2,42.0,29.61,ENE,57,1.0,2.0,82,0.00,,,0.29,Wunderground v.1.15,2013-10-10 19:25:00,
2013-10-10 13:30:00,47.3,42.1,29.62,ENE,60,0.0,0.0,82,0.00,,,0.29,Wunderground v.1.15,2013-10-10 19:30:00,
2013-10-10 13:40:00,47.6,42.1,29.60,ENE,72,1.0,1.0,81,0.00,,,0.29,Wunderground v.1.15,2013-10-10 19:40:00,
2013-10-10 13:45:00,48.1,42.9,29.61,SE,140,1.0,1.0,82,0.00,,,0.29,Wunderground v.1.15,2013-10-10 19:45:00,
2013-10-10 13:50:00,48.2,42.6,29.62,SE,138,1.0,1.0,81,0.00,,,0.29,Wunderground v.1.15,2013-10-10 19:50:00,
2013-10-10 13:55:00,48.6,43.4,29.60,ENE,71,1.0,1.0,82,0.00,,,0.29,Wunderground v.1.15,2013-10-10 19:55:00,
2013-10-10 14:00:00,48.9,43.3,29.60,East,94,0.0,0.0,81,0.00,,,0.29,Wunderground v.1.15,2013-10-10 20:00:00,
2013-10-10 14:05:00,49.1,43.2,29.61,SE,130,0.0,1.0,80,0.00,,,0.29,Wunderground v.1.15,2013-10-10 20:05:00,
2013-10-10 14:15:00,49.0,42.1,29.59,ENE,72,1.0,1.0,77,0.00,,,0.29,Wunderground v.1.15,2013-10-10 20:15:00,
2013-10-10 14:20:00,49.1,42.5,29.59,ESE,117,1.0,1.0,78,0.00,,,0.29,Wunderground v.1.15,2013-10-10 20:20:00,
2013-10-10 14:25:00,49.3,42.7,29.60,SE,130,0.0,2.0,78,0.00,,,0.29,Wunderground v.1.15,2013-10-10 20:25:00,
2013-10-10 14:30:00,49.4,42.5,29.59,ESE,112,1.0,1.0,77,0.00,,,0.29,Wunderground v.1.15,2013-10-10 20:30:00,
2013-10-10 14:35:00,49.9,43.0,29.58,East,84,1.0,1.0,77,0.00,,,0.29,Wunderground v.1.15,2013-10-10 20:35:00,
2013-10-10 14:40:00,50.4,42.8,29.58,ESE,110,1.0,1.0,75,0.00,,,0.29,Wunderground v.1.15,2013-10-10 20:40:00,
2013-10-10 14:45:00,50.7,43.1,29.57,SE,135,1.0,1.0,75,0.00,,,0.29,Wunderground v.1.15,2013-10-10 20:45:00,
2013-10-10 14:50:00,51.6,43.2,29.56,ESE,115,1.0,2.0,73,0.00,,,0.29,Wunderground v.1.15,2013-10-10 20:50:00,
2013-10-10 14:55:00,52.2,43.1,29.56,East,84,2.0,2.0,71,0.00,,,0.29,Wunderground v.1.15,2013-10-10 20:55:00,
2013-10-10 15:00:00,52.7,42.4,29.56,SE,124,2.0,2.0,68,0.00,,,0.29,Wunderground v.1.15,2013-10-10 21:00:00,
2013-10-10 15:05:00,53.0,41.9,29.56,East,81,2.0,5.0,66,0.00,,,0.29,Wunderground v.1.15,2013-10-10 21:05:00,
2013-10-10 15:15:00,53.3,42.2,29.56,East,84,2.0,2.0,66,0.00,,,0.29,Wunderground v.1.15,2013-10-10 21:15:00,
2013-10-10 15:20:00,53.4,42.3,29.57,ENE,71,1.0,3.0,66,0.00,,,0.29,Wunderground v.1.15,2013-10-10 21:20:00,
2013-10-10 15:25:00,53.3,42.2,29.56,NE,49,2.0,4.0,66,0.00,,,0.29,Wunderground v.1.15,2013-10-10 21:25:00,
2013-10-10 15:35:00,54.0,42.9,29.55,East,96,1.0,2.0,66,0.00,,,0.29,Wunderground v.1.15,2013-10-10 21:35:00,
2013-10-10 15:40:00,54.1,41.8,29.55,East,94,2.0,2.0,63,0.00,,,0.29,Wunderground v.1.15,2013-10-10 21:40:00,
2013-10-10 15:45:00,54.3,42.0,29.55,East,81,3.0,3.0,63,0.00,,,0.29,Wunderground v.1.15,2013-10-10 21:45:00,
2013-10-10 15:50:00,54.8,42.4,29.55,ESE,107,3.0,5.0,63,0.00,,,0.29,Wunderground v.1.15,2013-10-10 21:50:00,
2013-10-10 15:55:00,55.2,42.4,29.55,SE,136,3.0,5.0,62,0.00,,,0.29,Wunderground v.1.15,2013-10-10 21:55:00,
2013-10-10 16:05:00,55.0,42.2,29.57,East,101,1.0,2.0,62,0.00,,,0.29,Wunderground v.1.15,2013-10-10 22:05:00,
2013-10-10 16:10:00,55.0,42.2,29.57,SSE,150,0.0,0.0,62,0.00,,,0.29,Wunderground v.1.15,2013-10-10 22:10:00,
2013-10-10 16:20:00,55.2,42.4,29.57,ESE,114,0.0,0.0,62,0.00,,,0.29,Wunderground v.1.15,2013-10-10 22:20:00,
2013-10-10 16:25:00,55.1,42.3,29.57,East,79,0.0,1.0,62,0.00,,,0.29,Wunderground v.1.15,2013-10-10 22:25:00,
2013-10-10 16:30:00,55.1,42.3,29.57,ENE,69,0.0,0.0,62,0.00,,,0.29,Wunderground v.1.15,2013-10-10 22:30:00,
2013-10-10 16:40:00,55.1,42.7,29.57,ENE,69,0.0,0.0,63,0.00,,,0.29,Wunderground v.1.15,2013-10-10 22:40:00,
2013-10-10 16:45:00,54.5,42.2,29.57,South,173,0.0,0.0,63,0.00,,,0.29,Wunderground v.1.15,2013-10-10 22:45:00,
2013-10-10 16:50:00,54.1,42.2,29.57,South,173,0.0,0.0,64,0.00,,,0.29,Wunderground v.1.15,2013-10-10 22:50:00,
2013-10-10 16:55:00,53.4,42.3,29.58,South,173,0.0,0.0,66,0.00,,,0.29,Wunderground v.1.15,2013-10-10 22:55:00,
2013-10-10 17:00:00,52.7,42.4,29.59,South,173,0.0,0.0,68,0.00,,,0.29,Wunderground v.1.15,2013-10-10 23:00:00,
2013-10-10 17:05:00,52.1,42.6,29.61,South,173,0.0,0.0,70,0.00,,,0.29,Wunderground v.1.15,2013-10-10 23:05:00,
2013-10-10 17:15:00,51.6,42.5,29.62,WSW,250,1.0,6.0,71,0.00,,,0.29,Wunderground v.1.15,2013-10-10 23:15:00,
2013-10-10 17:20:00,50.4,41.0,29.63,West,264,7.0,10.0,70,0.00,,,0.29,Wunderground v.1.15,2013-10-10 23:20:00,
2013-10-10 17:25:00,49.2,40.9,29.63,SSW,200,10.0,10.0,73,0.00,,,0.29,Wunderground v.1.15,2013-10-10 23:25:00,
2013-10-10 17:30:00,48.6,40.7,29.64,SW,223,5.0,5.0,74,0.00,,,0.29,Wunderground v.1.15,2013-10-10 23:30:00,
2013-10-10 17:35:00,48.3,41.1,29.66,WSW,239,3.0,5.0,76,0.00,,,0.29,Wunderground v.1.15,2013-10-10 23:35:00,
2013-10-10 17:45:00,48.6,40.0,29.65,SW,215,5.0,7.0,72,0.00,,,0.29,Wunderground v.1.15,2013-10-10 23:45:00,
2013-10-10 17:50:00,48.7,39.7,29.65,SW,215,2.0,2.0,71,0.00,,,0.29,Wunderground v.1.15,2013-10-10 23:50:00,
2013-10-10 17:55:00,48.7,39.4,29.65,SW,214,0.0,2.0,70,0.00,,,0.29,Wunderground v.1.15,2013-10-10 23:55:00,
2013-10-10 18:00:00,48.8,39.8,29.65,NNW,334,0.0,0.0,71,0.00,,,0.29,Wunderground v.1.15,2013-10-11 00:00:00,
2013-10-10 18:05:00,48.7,40.8,29.65,NW,325,1.0,1.0,74,0.00,,,0.29,Wunderground v.1.15,2013-10-11 00:05:00,
2013-10-10 18:15:00,47.7,40.8,29.68,West,271,2.0,3.0,77,0.00,,,0.30,Wunderground v.1.15,2013-10-11 00:15:00,
2013-10-10 18:20:00,47.4,40.9,29.68,WNW,292,3.0,5.0,78,0.00,,,0.30,Wunderground v.1.15,2013-10-11 00:20:00,
2013-10-10 18:25:00,47.1,41.2,29.68,West,277,2.0,5.0,80,0.00,,,0.30,Wunderground v.1.15,2013-10-11 00:25:00,
2013-10-10 18:30:00,46.9,41.1,29.68,West,272,1.0,1.0,80,0.00,,,0.30,Wunderground v.1.15,2013-10-11 00:30:00,
2013-10-10 18:35:00,46.8,41.3,29.68,NNW,334,0.0,1.0,81,0.00,,,0.30,Wunderground v.1.15,2013-10-11 00:35:00,
2013-10-10 18:40:00,46.7,41.5,29.69,WNW,295,1.0,4.0,82,0.00,,,0.30,Wunderground v.1.15,2013-10-11 00:40:00,
2013-10-10 18:45:00,46.5,41.3,29.69,West,281,3.0,4.0,82,0.00,,,0.30,Wunderground v.1.15,2013-10-11 00:45:00,
2013-10-10 18:55:00,46.3,41.4,29.70,NNW,327,0.0,2.0,83,0.00,,,0.31,Wunderground v.1.15,2013-10-11 00:55:00,
2013-10-10 19:00:00,46.1,41.2,29.70,NNW,327,0.0,0.0,83,0.00,,,0.31,Wunderground v.1.15,2013-10-11 01:00:00,
2013-10-10 19:05:00,45.9,41.3,29.71,NW,326,0.0,0.0,84,0.00,,,0.31,Wunderground v.1.15,2013-10-11 01:05:00,
2013-10-10 19:15:00,45.8,41.2,29.71,WNW,296,0.0,0.0,84,0.00,,,0.31,Wunderground v.1.15,2013-10-11 01:15:00,
2013-10-10 19:20:00,45.8,41.2,29.71,WNW,295,0.0,0.0,84,0.00,,,0.31,Wunderground v.1.15,2013-10-11 01:20:00,
2013-10-10 19:25:00,45.8,41.5,29.71,WNW,295,0.0,0.0,85,0.00,,,0.31,Wunderground v.1.15,2013-10-11 01:25:00,
2013-10-10 19:30:00,45.7,41.4,29.71,SSW,205,0.0,0.0,85,0.00,,,0.32,Wunderground v.1.15,2013-10-11 01:30:00,
2013-10-10 19:35:00,45.8,41.2,29.71,SE,146,0.0,0.0,84,0.00,,,0.32,Wunderground v.1.15,2013-10-11 01:35:00,
2013-10-10 19:40:00,45.9,40.7,29.71,SW,218,0.0,5.0,82,0.00,,,0.32,Wunderground v.1.15,2013-10-11 01:40:00,
2013-10-10 19:45:00,46.1,40.6,29.71,SSW,210,2.0,5.0,81,0.00,,,0.32,Wunderground v.1.15,2013-10-11 01:45:00,
2013-10-10 19:55:00,46.0,40.2,29.71,SSW,210,1.0,2.0,80,0.00,,,0.32,Wunderground v.1.15,2013-10-11 01:55:00,
2013-10-10 20:00:00,45.9,39.8,29.71,SSW,210,0.0,0.0,79,0.00,,,0.32,Wunderground v.1.15,2013-10-11 02:00:00,
2013-10-10 20:05:00,45.7,39.2,29.71,SSE,152,0.0,0.0,78,0.00,,,0.32,Wunderground v.1.15,2013-10-11 02:05:00,
2013-10-10 20:15:00,45.8,39.0,29.72,SSE,160,0.0,0.0,77,0.00,,,0.32,Wunderground v.1.15,2013-10-11 02:15:00,
2013-10-10 20:25:00,45.6,39.1,29.72,SSE,160,0.0,0.0,78,0.00,,,0.32,Wunderground v.1.15,2013-10-11 02:25:00,
2013-10-10 20:30:00,45.5,39.4,29.72,SSE,160,0.0,0.0,79,0.00,,,0.32,Wunderground v.1.15,2013-10-11 02:30:00,
2013-10-10 20:35:00,45.5,39.0,29.72,SSE,160,0.0,0.0,78,0.00,,,0.32,Wunderground v.1.15,2013-10-11 02:35:00,
2013-10-10 20:40:00,45.7,39.6,29.72,SSE,160,0.0,0.0,79,0.00,,,0.32,Wunderground v.1.15,2013-10-11 02:40:00,
2013-10-10 20:45:00,45.8,40.0,29.73,SSE,160,0.0,0.0,80,0.00,,,0.32,Wunderground v.1.15,2013-10-11 02:45:00,
2013-10-10 20:50:00,45.9,40.1,29.73,SSE,160,0.0,0.0,80,0.00,,,0.32,Wunderground v.1.15,2013-10-11 02:50:00,
2013-10-10 21:00:00,45.8,40.0,29.73,SSE,160,0.0,0.0,80,0.00,,,0.32,Wunderground v.1.15,2013-10-11 03:00:00,
2013-10-10 21:05:00,45.7,40.2,29.73,SSE,160,0.0,0.0,81,0.00,,,0.32,Wunderground v.1.15,2013-10-11 03:05:00,
2013-10-10 21:15:00,45.8,40.6,29.73,NNE,29,0.0,0.0,82,0.00,,,0.32,Wunderground v.1.15,2013-10-11 03:15:00,
2013-10-10 21:20:00,45.8,40.6,29.73,NNE,29,0.0,0.0,82,0.00,,,0.32,Wunderground v.1.15,2013-10-11 03:20:00,
2013-10-10 21:30:00,45.8,40.9,29.74,SE,130,0.0,0.0,83,0.00,,,0.32,Wunderground v.1.15,2013-10-11 03:30:00,
2013-10-10 21:35:00,45.8,40.9,29.75,SE,130,0.0,0.0,83,0.00,,,0.32,Wunderground v.1.15,2013-10-11 03:35:00,
2013-10-10 21:45:00,45.8,40.6,29.75,SE,134,0.0,0.0,82,0.00,,,0.32,Wunderground v.1.15,2013-10-11 03:45:00,
2013-10-10 21:50:00,45.8,40.6,29.75,SE,134,0.0,0.0,82,0.00,,,0.33,Wunderground v.1.15,2013-10-11 03:50:00,
2013-10-10 21:55:00,45.8,40.6,29.76,SE,134,0.0,0.0,82,0.19,,,0.34,Wunderground v.1.15,2013-10-11 03:55:00,
2013-10-10 22:00:00,45.8,40.9,29.75,ENE,58,0.0,0.0,83,0.09,,,0.35,Wunderground v.1.15,2013-10-11 04:00:00,
2013-10-10 22:05:00,45.7,40.8,29.76,ENE,58,0.0,0.0,83,0.09,,,0.35,Wunderground v.1.15,2013-10-11 04:05:00,
2013-10-10 22:10:00,45.7,40.8,29.76,ENE,57,0.0,0.0,83,0.05,,,0.35,Wunderground v.1.15,2013-10-11 04:10:00,
2013-10-10 22:15:00,45.6,40.7,29.76,ENE,58,0.0,0.0,83,0.04,,,0.35,Wunderground v.1.15,2013-10-11 04:15:00,
2013-10-10 22:20:00,45.3,40.4,29.77,ENE,58,0.0,0.0,83,0.00,,,0.35,Wunderground v.1.15,2013-10-11 04:20:00,
2013-10-10 22:30:00,44.6,40.1,29.77,SE,134,0.0,0.0,84,0.00,,,0.35,Wunderground v.1.15,2013-10-11 04:30:00,
2013-10-10 22:35:00,44.3,39.8,29.78,SE,135,0.0,0.0,84,0.00,,,0.35,Wunderground v.1.15,2013-10-11 04:35:00,
2013-10-10 22:40:00,44.3,40.1,29.78,SE,134,0.0,0.0,85,0.00,,,0.35,Wunderground v.1.15,2013-10-11 04:40:00,
2013-10-10 22:50:00,44.3,40.4,29.79,SE,134,0.0,0.0,86,0.00,,,0.35,Wunderground v.1.15,2013-10-11 04:50:00,
2013-10-10 22:55:00,44.4,40.5,29.79,SE,134,0.0,0.0,86,0.00,,,0.35,Wunderground v.1.15,2013-10-11 04:55:00,
2013-10-10 23:05:00,44.6,40.7,29.78,SE,134,0.0,0.0,86,0.00,,,0.35,Wunderground v.1.15,2013-10-11 05:05:00,
2013-10-10 23:15:00,44.9,41.0,29.78,ESE,122,0.0,0.0,86,0.00,,,0.35,Wunderground v.1.15,2013-10-11 05:15:00,
2013-10-10 23:20:00,45.0,41.1,29.78,ESE,122,0.0,0.0,86,0.00,,,0.35,Wunderground v.1.15,2013-10-11 05:20:00,
2013-10-10 23:25:00,45.0,41.4,29.78,ESE,122,0.0,0.0,87,0.00,,,0.35,Wunderground v.1.15,2013-10-11 05:25:00,
2013-10-10 23:35:00,45.1,41.2,29.78,ESE,123,0.0,0.0,86,0.00,,,0.35,Wunderground v.1.15,2013-10-11 05:35:00,
2013-10-10 23:40:00,45.2,41.6,29.79,ESE,123,0.0,0.0,87,0.00,,,0.36,Wunderground v.1.15,2013-10-11 05:40:00,
2013-10-10 23:50:00,45.3,41.7,29.78,ESE,123,0.0,0.0,87,0.00,,,0.36,Wunderground v.1.15,2013-10-11 05:50:00,
2013-10-10 23:55:00,45.4,41.8,29.79,ESE,122,0.0,0.0,87,0.00,,,0.36,Wunderground v.1.15,2013-10-11 05:55:00,